KWDG/WDG METAR and TAF weather

Enter ICAO airport designator
Station Type Date Time Source
KWDG METAR 2021/09/28 05:15 UTC NOAA

KWDG 280515Z AUTO 17006KT 10SM CLR 21/11 A2989 RMK AO2


Station Type Date Time Source
KWDG Decoded METAR 2021/09/28 05:15 UTC NOAA

Enid, Enid Woodring Regional Airport, OK, United States (KWDG) 36-22-45N 097-47-28W
Sep 28, 2021 - 01:15 AM EDT / 2021.09.28 0515 UTC
Wind: from the S (170 degrees) at 7 MPH (6 KT):0
Visibility: 10 mile(s):0
Sky conditions: clear
Temperature: 69 F (21 C)
Dew Point: 51 F (11 C)
Relative Humidity: 52%
Pressure (altimeter): 29.89 in. Hg (1012 hPa)
ob: KWDG 280515Z AUTO 17006KT 10SM CLR 21/11 A2989 RMK AO2
cycle: 5

Station Type Date Time Source
KWDG TAF UTC NOAA

Error!

Example: see airport list